createdAt,value
2023-05-05T00:01:57.135Z,95764.34
2023-05-05T00:04:24.319Z,95765.38
2023-05-05T00:06:51.167Z,95766.80
2023-05-05T00:09:17.949Z,95760.42
2023-05-05T00:11:44.577Z,95759.88
2023-05-05T00:14:11.396Z,95760.79
2023-05-05T00:16:38.078Z,95756.56
2023-05-05T00:19:05.046Z,95752.17
2023-05-05T00:21:31.839Z,95752.25
2023-05-05T00:23:58.703Z,95756.33
2023-05-05T00:26:25.372Z,95757.90
2023-05-05T00:28:52.093Z,95760.48
2023-05-05T00:31:18.858Z,95758.54
2023-05-05T00:33:45.618Z,95763.02
2023-05-05T00:36:13.189Z,95763.73
2023-05-05T00:38:39.867Z,95762.42
2023-05-05T00:41:07.073Z,95762.90
2023-05-05T00:43:33.829Z,95762.86
2023-05-05T00:46:13.346Z,95767.84
2023-05-05T00:48:39.943Z,95768.43
2023-05-05T00:51:08.796Z,95769.16
2023-05-05T00:53:35.681Z,95767.80
2023-05-05T00:56:02.425Z,95767.59
2023-05-05T00:58:30.041Z,95772.91
2023-05-05T01:00:56.927Z,95773.06
2023-05-05T01:03:23.693Z,95774.45
2023-05-05T01:05:53.796Z,95774.08
2023-05-05T01:08:32.532Z,95772.63
2023-05-05T01:11:02.627Z,95771.66
2023-05-05T01:13:53.480Z,95771.89
2023-05-05T01:16:25.272Z,95766.11
2023-05-05T01:18:55.128Z,95765.73
2023-05-05T01:21:26.852Z,95765.02
2023-05-05T01:24:16.655Z,95762.19
2023-05-05T01:27:04.058Z,95764.51
2023-05-05T01:29:42.904Z,95764.36
2023-05-05T01:32:12.380Z,95767.39
2023-05-05T01:34:46.244Z,95767.61
2023-05-05T01:37:17.651Z,95763.85
2023-05-05T01:39:50.224Z,95759.96
2023-05-05T01:42:18.055Z,95759.36
2023-05-05T01:44:45.920Z,95756.88
2023-05-05T01:47:14.920Z,95752.70
2023-05-05T01:49:46.043Z,95754.14
2023-05-05T01:52:16.514Z,95752.16
2023-05-05T01:54:47.062Z,95748.61
2023-05-05T01:57:14.661Z,95753.14
2023-05-05T01:59:41.797Z,95756.10
2023-05-05T02:02:10.880Z,95753.55
2023-05-05T02:04:40.780Z,95754.11
2023-05-05T02:07:08.353Z,95757.08
2023-05-05T02:09:36.040Z,95756.22
2023-05-05T02:12:04.019Z,95755.14
2023-05-05T02:14:32.273Z,95756.80
2023-05-05T02:16:59.085Z,95755.97
2023-05-05T02:19:31.557Z,95753.38
2023-05-05T02:21:58.405Z,95750.95
2023-05-05T02:24:25.947Z,95756.19
2023-05-05T02:26:53.436Z,95757.63
2023-05-05T02:29:23.805Z,95757.99
2023-05-05T02:31:52.947Z,95758.35
2023-05-05T02:34:23.977Z,95761.55
2023-05-05T02:36:53.907Z,95760.83
2023-05-05T02:39:25.016Z,95761.30
2023-05-05T02:41:53.537Z,95757.80
2023-05-05T02:44:24.057Z,95761.77
2023-05-05T02:46:51.530Z,95761.88
2023-05-05T02:49:18.780Z,95760.20
2023-05-05T02:51:46.124Z,95766.27
2023-05-05T02:54:20.104Z,95766.70
2023-05-05T02:56:48.319Z,95772.33
2023-05-05T02:59:19.074Z,95771.56
2023-05-05T03:02:05.978Z,95776.45
2023-05-05T03:04:41.509Z,95779.71
2023-05-05T03:07:23.212Z,95783.17
2023-05-05T03:10:02.670Z,95779.23
2023-05-05T03:12:34.045Z,95783.14
2023-05-05T03:15:10.362Z,95780.44
2023-05-05T03:17:39.529Z,95779.35
2023-05-05T03:20:07.168Z,95781.71
2023-05-05T03:22:36.597Z,95784.50
2023-05-05T03:25:05.565Z,95787.25
2023-05-05T03:27:32.492Z,95787.32
2023-05-05T03:29:59.674Z,95788.77
2023-05-05T03:32:26.932Z,95789.84
2023-05-05T03:34:54.395Z,95790.02
2023-05-05T03:37:25.745Z,95794.96
2023-05-05T03:39:52.974Z,95793.05
2023-05-05T03:42:20.215Z,95788.96
2023-05-05T03:44:47.019Z,95795.96
2023-05-05T03:47:13.727Z,95794.82
2023-05-05T03:49:40.862Z,95797.25
2023-05-05T03:52:08.124Z,95794.78
2023-05-05T03:54:35.211Z,95799.36
2023-05-05T03:57:02.293Z,95798.23
2023-05-05T03:59:29.098Z,95796.52
2023-05-05T04:01:56.201Z,95801.80
2023-05-05T04:04:22.876Z,95801.79
2023-05-05T04:06:49.681Z,95798.02
2023-05-05T04:09:16.406Z,95802.77
2023-05-05T04:11:43.402Z,95804.16
2023-05-05T04:14:10.339Z,95801.90
2023-05-05T04:16:37.491Z,95802.23
2023-05-05T04:19:04.313Z,95807.30
2023-05-05T04:21:31.822Z,95799.90
2023-05-05T04:23:59.095Z,95800.67
2023-05-05T04:26:27.178Z,95804.98
2023-05-05T04:28:55.144Z,95799.99
2023-05-05T04:31:21.945Z,95804.18
2023-05-05T04:33:48.777Z,95808.27
2023-05-05T04:36:15.534Z,95805.42
2023-05-05T04:38:42.706Z,95803.30
2023-05-05T04:41:09.565Z,95803.71
2023-05-05T04:43:37.398Z,95799.75
2023-05-05T04:46:04.739Z,95794.89
2023-05-05T04:48:33.808Z,95800.01
2023-05-05T04:51:04.000Z,95797.88
2023-05-05T04:53:30.955Z,95795.23
2023-05-05T04:55:59.483Z,95796.34
2023-05-05T04:58:27.645Z,95796.16
2023-05-05T05:00:57.506Z,95799.92
2023-05-05T05:03:24.781Z,95800.98
2023-05-05T05:05:52.871Z,95798.42
2023-05-05T05:08:21.076Z,95802.20
2023-05-05T05:10:50.285Z,95801.63
2023-05-05T05:13:17.011Z,95804.62
2023-05-05T05:15:47.585Z,95802.54
2023-05-05T05:18:14.520Z,95803.17
2023-05-05T05:20:47.280Z,95796.61
2023-05-05T05:23:15.160Z,95797.05
2023-05-05T05:25:43.345Z,95798.82
2023-05-05T05:28:20.632Z,95798.36
2023-05-05T05:30:54.043Z,95795.77
2023-05-05T05:33:23.021Z,95791.92
2023-05-05T05:35:52.414Z,95788.86
2023-05-05T05:38:21.370Z,95788.02
2023-05-05T05:40:51.133Z,95785.20
2023-05-05T05:43:18.351Z,95786.35
2023-05-05T05:45:45.562Z,95790.95
2023-05-05T05:48:12.664Z,95789.00
2023-05-05T05:50:42.988Z,95794.39
2023-05-05T05:53:13.755Z,95796.92
2023-05-05T05:55:45.900Z,95797.11
2023-05-05T05:58:14.179Z,95796.62
2023-05-05T06:00:43.153Z,95796.92
2023-05-05T06:03:13.969Z,95793.98
2023-05-05T06:05:47.001Z,95794.58
2023-05-05T06:08:38.136Z,95793.58
2023-05-05T06:11:26.945Z,95790.11
2023-05-05T06:17:34.263Z,95788.86
2023-05-05T06:20:12.717Z,95795.27
2023-05-05T06:22:46.050Z,95793.81
2023-05-05T06:25:22.770Z,95793.32
2023-05-05T06:27:53.363Z,95793.96
2023-05-05T06:30:21.926Z,95794.20
2023-05-05T06:32:51.514Z,95789.03
2023-05-05T06:35:18.928Z,95797.15
2023-05-05T06:37:52.103Z,95798.09
2023-05-05T06:40:23.414Z,95795.89
2023-05-05T06:42:56.041Z,95796.13
2023-05-05T06:45:27.673Z,95796.11
2023-05-05T06:47:55.224Z,95793.17
2023-05-05T06:50:22.298Z,95789.86
2023-05-05T06:52:50.799Z,95789.95
2023-05-05T06:55:22.956Z,95794.70
2023-05-05T06:57:51.997Z,95797.36
2023-05-05T07:00:19.125Z,95798.58
2023-05-05T07:02:47.853Z,95797.31
2023-05-05T07:05:15.013Z,95796.83
2023-05-05T07:07:55.679Z,95797.59
2023-05-05T07:10:25.578Z,95801.23
2023-05-05T07:12:54.191Z,95800.95
2023-05-05T07:15:29.127Z,95804.60
2023-05-05T07:17:57.155Z,95800.35
2023-05-05T07:20:24.745Z,95800.35
2023-05-05T07:22:52.839Z,95794.55
2023-05-05T07:25:20.694Z,95791.79
2023-05-05T07:27:49.316Z,95792.28
2023-05-05T07:30:19.151Z,95790.83
2023-05-05T07:32:46.781Z,95794.15
2023-05-05T07:35:13.836Z,95795.85
2023-05-05T07:37:43.961Z,95791.64
2023-05-05T07:40:12.744Z,95790.78
2023-05-05T07:42:40.272Z,95788.75
2023-05-05T07:45:10.322Z,95783.73
2023-05-05T07:47:38.562Z,95778.14
2023-05-05T07:50:06.839Z,95781.48
2023-05-05T07:52:46.751Z,95787.23
2023-05-05T07:55:17.056Z,95780.20
2023-05-05T07:57:51.370Z,95784.35
2023-05-05T08:00:21.669Z,95786.91
2023-05-05T08:03:01.692Z,95788.50
2023-05-05T08:05:30.267Z,95782.45
2023-05-05T08:07:57.827Z,95781.07
2023-05-05T08:10:30.331Z,95784.55
2023-05-05T08:13:01.023Z,95784.00
2023-05-05T08:15:34.509Z,95782.11
2023-05-05T08:18:04.461Z,95778.35
2023-05-05T08:20:35.227Z,95778.54
2023-05-05T08:23:07.997Z,95777.66
2023-05-05T08:25:37.537Z,95780.29
2023-05-05T08:28:05.385Z,95780.93
2023-05-05T08:30:34.426Z,95782.46
2023-05-05T08:33:04.469Z,95779.04
2023-05-05T08:35:34.614Z,95773.73
2023-05-05T08:38:09.071Z,95781.67
2023-05-05T08:40:42.006Z,95782.16
2023-05-05T08:43:11.414Z,95781.36
2023-05-05T08:45:42.418Z,95783.18
2023-05-05T08:48:12.548Z,95783.61
2023-05-05T08:50:44.744Z,95788.38
2023-05-05T08:53:16.915Z,95791.91
2023-05-05T08:55:51.947Z,95790.05
2023-05-05T08:58:19.292Z,95784.09
2023-05-05T09:00:46.465Z,95786.10
2023-05-05T09:03:14.483Z,95784.48
2023-05-05T09:05:42.294Z,95784.27
2023-05-05T09:08:13.860Z,95778.55
2023-05-05T09:10:44.380Z,95775.42
2023-05-05T09:13:14.804Z,95778.25
2023-05-05T09:15:43.285Z,95780.19
2023-05-05T09:18:13.115Z,95781.88
2023-05-05T09:20:47.228Z,95782.83
2023-05-05T09:23:15.805Z,95787.65
2023-05-05T09:25:47.354Z,95778.03
2023-05-05T09:28:15.738Z,95772.61
2023-05-05T09:30:49.084Z,95773.23
2023-05-05T09:33:28.356Z,95767.27
2023-05-05T09:35:59.150Z,95762.48
2023-05-05T09:38:26.739Z,95761.75
2023-05-05T09:40:58.039Z,95759.63
2023-05-05T09:43:27.782Z,95762.10
2023-05-05T09:46:09.857Z,95761.67
2023-05-05T09:48:44.006Z,95761.66
2023-05-05T09:51:20.650Z,95757.94
2023-05-05T09:53:57.112Z,95751.39
2023-05-05T09:56:36.261Z,95755.70
2023-05-05T09:59:10.348Z,95751.25
2023-05-05T10:01:40.835Z,95749.38
2023-05-05T10:04:09.247Z,95751.25
2023-05-05T10:06:39.659Z,95749.59
2023-05-05T10:09:06.715Z,95746.28
2023-05-05T10:11:34.012Z,95743.95
2023-05-05T10:14:01.889Z,95743.38
2023-05-05T10:16:29.496Z,95739.84
2023-05-05T10:18:58.147Z,95744.67
2023-05-05T10:21:25.967Z,95744.65
2023-05-05T10:24:15.194Z,95743.10
2023-05-05T10:26:43.627Z,95733.14
2023-05-05T10:29:16.851Z,95730.73
2023-05-05T10:31:49.349Z,95732.91
2023-05-05T10:34:35.128Z,95733.52
2023-05-05T10:37:04.090Z,95734.46
2023-05-05T10:39:30.959Z,95732.63
2023-05-05T10:42:01.442Z,95733.33
2023-05-05T10:44:33.081Z,95731.16
2023-05-05T10:47:01.396Z,95733.61
2023-05-05T10:49:44.199Z,95733.11
2023-05-05T10:52:13.935Z,95734.49
2023-05-05T10:54:54.153Z,95728.67
2023-05-05T10:57:23.202Z,95720.73
2023-05-05T10:59:50.033Z,95725.88
2023-05-05T11:02:27.448Z,95726.61
2023-05-05T11:05:02.973Z,95722.01
2023-05-05T11:07:29.750Z,95724.98
2023-05-05T11:10:01.054Z,95725.11
2023-05-05T11:12:28.158Z,95721.10
2023-05-05T11:15:13.858Z,95722.59
2023-05-05T11:17:44.038Z,95717.90
2023-05-05T11:20:10.923Z,95721.33
2023-05-05T11:22:56.507Z,95713.42
2023-05-05T11:25:43.971Z,95713.38
2023-05-05T11:28:15.904Z,95703.63
2023-05-05T11:30:55.264Z,95702.73
2023-05-05T11:33:32.028Z,95700.07
2023-05-05T11:35:59.687Z,95699.92
2023-05-05T11:38:32.259Z,95697.59
2023-05-05T11:41:04.069Z,95698.38
2023-05-05T11:43:30.807Z,95696.94
2023-05-05T11:46:11.470Z,95696.52
2023-05-05T11:48:48.272Z,95696.84
2023-05-05T11:51:15.962Z,95696.86
2023-05-05T11:53:43.649Z,95697.16
2023-05-05T11:56:11.466Z,95693.18
2023-05-05T11:58:38.216Z,95689.13
2023-05-05T12:01:06.058Z,95688.39
2023-05-05T12:03:36.218Z,95688.09
2023-05-05T12:06:03.908Z,95681.73
2023-05-05T12:08:40.257Z,95681.29
2023-05-05T12:11:07.884Z,95677.41
2023-05-05T12:13:34.945Z,95671.57
2023-05-05T12:16:12.238Z,95674.33
2023-05-05T12:18:39.555Z,95668.35
2023-05-05T12:21:16.265Z,95666.20
2023-05-05T12:23:42.864Z,95667.90
2023-05-05T12:26:29.202Z,95670.13
2023-05-05T12:28:56.772Z,95668.84
2023-05-05T12:31:33.682Z,95666.17
2023-05-05T12:34:01.364Z,95659.55
2023-05-05T12:36:30.483Z,95660.16
2023-05-05T12:38:57.525Z,95658.75
2023-05-05T12:41:24.494Z,95658.64
2023-05-05T12:43:58.687Z,95659.55
2023-05-05T12:46:25.894Z,95659.27
2023-05-05T12:48:59.773Z,95654.23
2023-05-05T12:51:27.572Z,95649.48
2023-05-05T12:54:01.895Z,95645.23
2023-05-05T12:56:39.961Z,95641.41
2023-05-05T12:59:07.077Z,95637.14
2023-05-05T13:01:34.878Z,95640.41
2023-05-05T13:04:05.665Z,95636.04
2023-05-05T13:06:32.507Z,95634.95
2023-05-05T13:08:59.253Z,95630.24
2023-05-05T13:11:26.212Z,95625.95
2023-05-05T13:13:52.999Z,95625.19
2023-05-05T13:16:19.734Z,95626.29
2023-05-05T13:18:46.967Z,95624.02
2023-05-05T13:21:13.641Z,95623.49
2023-05-05T13:23:44.149Z,95617.80
2023-05-05T13:26:11.851Z,95615.15
2023-05-05T13:28:41.584Z,95611.73
2023-05-05T13:31:08.300Z,95602.80
2023-05-05T13:33:35.425Z,95603.02
2023-05-05T13:36:02.767Z,95601.86
2023-05-05T13:38:31.644Z,95603.73
2023-05-05T13:40:59.116Z,95603.46
2023-05-05T13:43:25.685Z,95597.95
2023-05-05T13:45:52.988Z,95598.51
2023-05-05T13:48:19.873Z,95600.02
2023-05-05T13:50:46.694Z,95595.15
2023-05-05T13:53:13.729Z,95596.63
2023-05-05T13:55:43.965Z,95595.11
2023-05-05T13:58:10.916Z,95597.27
2023-05-05T14:00:38.122Z,95590.34
2023-05-05T14:03:05.085Z,95590.91
2023-05-05T14:05:33.130Z,95590.62
2023-05-05T14:07:59.763Z,95589.39
2023-05-05T14:10:29.278Z,95586.63
2023-05-05T14:12:56.644Z,95585.48
2023-05-05T14:15:23.296Z,95586.39
2023-05-05T14:17:50.208Z,95583.39
2023-05-05T14:20:16.910Z,95584.23
2023-05-05T14:22:43.629Z,95581.34
2023-05-05T14:25:10.393Z,95579.95
2023-05-05T14:27:37.134Z,95574.91
2023-05-05T14:30:04.604Z,95575.75
2023-05-05T14:32:31.891Z,95576.38
2023-05-05T14:34:58.508Z,95573.56
2023-05-05T14:37:25.796Z,95572.70
2023-05-05T14:39:52.410Z,95570.55
2023-05-05T14:42:19.121Z,95572.05
2023-05-05T14:44:46.207Z,95566.49
2023-05-05T14:47:12.790Z,95566.31
2023-05-05T14:49:39.424Z,95565.44
2023-05-05T14:52:06.205Z,95566.73
2023-05-05T14:54:33.074Z,95567.87
2023-05-05T14:56:59.797Z,95566.27
2023-05-05T14:59:27.078Z,95566.11
2023-05-05T15:01:53.855Z,95569.38
2023-05-05T15:04:20.634Z,95571.82
2023-05-05T15:06:47.233Z,95564.98
2023-05-05T15:09:13.933Z,95566.08
2023-05-05T15:11:40.788Z,95561.18
2023-05-05T15:14:07.441Z,95563.35
2023-05-05T15:16:35.348Z,95561.10
2023-05-05T15:19:02.469Z,95559.16
2023-05-05T15:21:29.203Z,95561.33
2023-05-05T15:23:55.913Z,95559.45
2023-05-05T15:26:23.370Z,95561.65
2023-05-05T15:28:51.977Z,95558.98
2023-05-05T15:31:18.801Z,95560.48
2023-05-05T15:33:47.917Z,95560.23
2023-05-05T15:36:15.682Z,95559.29
2023-05-05T15:38:42.717Z,95557.32
2023-05-05T15:41:09.281Z,95557.77
2023-05-05T15:43:35.921Z,95558.65
2023-05-05T15:46:02.633Z,95560.94
2023-05-05T15:48:29.664Z,95560.06
2023-05-05T15:50:56.265Z,95559.77
2023-05-05T15:53:23.018Z,95561.39
2023-05-05T15:55:49.654Z,95560.23
2023-05-05T15:58:16.381Z,95559.63
2023-05-05T16:00:43.012Z,95561.50
2023-05-05T16:03:09.874Z,95560.30
2023-05-05T16:05:36.535Z,95561.46
2023-05-05T16:08:09.019Z,95562.69
2023-05-05T16:10:36.742Z,95563.23
2023-05-05T16:13:03.448Z,95562.57
2023-05-05T16:15:30.159Z,95561.27
2023-05-05T16:17:56.911Z,95564.63
2023-05-05T16:20:23.701Z,95561.07
2023-05-05T16:22:50.305Z,95560.42
2023-05-05T16:25:19.196Z,95558.98
2023-05-05T16:27:46.011Z,95562.43
2023-05-05T16:30:14.916Z,95562.21
2023-05-05T16:32:41.710Z,95558.58
2023-05-05T16:35:08.721Z,95557.38
2023-05-05T16:37:35.995Z,95561.63
2023-05-05T16:40:04.899Z,95560.35
2023-05-05T16:42:31.412Z,95568.51
2023-05-05T16:44:58.059Z,95571.70
2023-05-05T16:47:24.921Z,95570.64
2023-05-05T16:49:52.079Z,95569.48
2023-05-05T16:52:18.840Z,95573.13
2023-05-05T16:54:47.303Z,95575.61
2023-05-05T16:57:14.193Z,95580.75
2023-05-05T16:59:41.205Z,95580.79
2023-05-05T17:02:08.154Z,95579.63
2023-05-05T17:04:34.928Z,95581.17
2023-05-05T17:07:01.658Z,95580.94
2023-05-05T17:09:28.276Z,95583.96
2023-05-05T17:11:55.414Z,95586.05
2023-05-05T17:14:23.731Z,95583.95
2023-05-05T17:16:50.614Z,95586.65
2023-05-05T17:19:17.231Z,95585.71
2023-05-05T17:21:43.912Z,95586.55
2023-05-05T17:24:10.826Z,95584.36
2023-05-05T17:26:38.413Z,95582.16
2023-05-05T17:29:05.322Z,95582.21
2023-05-05T17:31:31.914Z,95585.31
2023-05-05T17:33:58.893Z,95586.50
2023-05-05T17:36:25.604Z,95589.86
2023-05-05T17:38:52.247Z,95588.91
2023-05-05T17:41:19.218Z,95591.66
2023-05-05T17:43:45.986Z,95590.33
2023-05-05T17:46:12.837Z,95595.59
2023-05-05T17:48:39.614Z,95596.52
2023-05-05T17:51:06.258Z,95596.21
2023-05-05T17:53:33.651Z,95599.96
2023-05-05T17:56:00.243Z,95603.85
2023-05-05T17:58:26.918Z,95604.54
2023-05-05T18:00:53.802Z,95605.13
2023-05-05T18:03:20.546Z,95609.55
2023-05-05T18:05:47.407Z,95610.27
2023-05-05T18:08:14.088Z,95611.38
2023-05-05T18:10:40.769Z,95616.02
2023-05-05T18:13:07.433Z,95625.42
2023-05-05T18:15:34.194Z,95622.96
2023-05-05T18:18:00.930Z,95626.45
2023-05-05T18:20:27.615Z,95631.67
2023-05-05T18:22:54.210Z,95632.93
2023-05-05T18:25:21.005Z,95639.27
2023-05-05T18:27:47.577Z,95644.31
2023-05-05T18:30:14.195Z,95647.05
2023-05-05T18:32:40.788Z,95649.22
2023-05-05T18:35:08.011Z,95648.32
2023-05-05T18:37:35.321Z,95648.27
2023-05-05T18:40:01.989Z,95650.27
2023-05-05T18:42:28.621Z,95651.71
2023-05-05T18:44:55.181Z,95655.77
2023-05-05T18:47:21.859Z,95659.34
2023-05-05T18:49:49.167Z,95656.09
2023-05-05T18:52:16.366Z,95656.91
2023-05-05T18:54:43.144Z,95660.64
2023-05-05T18:57:10.135Z,95661.42
2023-05-05T18:59:36.828Z,95661.09
2023-05-05T19:02:03.809Z,95662.30
2023-05-05T19:04:32.267Z,95660.15
2023-05-05T19:06:59.415Z,95660.75
2023-05-05T19:09:26.917Z,95666.58
2023-05-05T19:11:53.600Z,95664.11
2023-05-05T19:14:21.555Z,95668.55
2023-05-05T19:16:48.275Z,95668.64
2023-05-05T19:19:15.113Z,95667.40
2023-05-05T19:21:44.372Z,95664.80
2023-05-05T19:24:11.173Z,95665.27
2023-05-05T19:26:37.829Z,95663.68
2023-05-05T19:29:04.483Z,95663.91
2023-05-05T19:31:31.548Z,95659.34
2023-05-05T19:33:59.670Z,95657.38
2023-05-05T19:36:27.419Z,95659.80
2023-05-05T19:38:54.914Z,95658.70
2023-05-05T19:41:21.622Z,95656.21
2023-05-05T19:43:49.377Z,95658.30
2023-05-05T19:46:16.620Z,95661.39
2023-05-05T19:48:43.735Z,95659.63
2023-05-05T19:51:10.427Z,95656.85
2023-05-05T19:53:37.089Z,95662.92
2023-05-05T19:56:04.419Z,95658.36
2023-05-05T19:58:42.816Z,95661.80
2023-05-05T20:01:09.419Z,95660.71
2023-05-05T20:03:36.330Z,95660.05
2023-05-05T20:06:03.329Z,95658.44
2023-05-05T20:08:30.088Z,95655.81
2023-05-05T20:10:56.787Z,95653.86
2023-05-05T20:13:23.730Z,95654.13
2023-05-05T20:15:50.438Z,95655.35
2023-05-05T20:18:17.017Z,95656.43
2023-05-05T20:20:43.666Z,95658.27
2023-05-05T20:23:10.478Z,95656.38
2023-05-05T20:25:37.201Z,95657.97
2023-05-05T20:28:04.436Z,95656.27
2023-05-05T20:30:31.077Z,95653.55
2023-05-05T20:32:57.701Z,95652.45
2023-05-05T20:35:25.049Z,95654.73
2023-05-05T20:37:51.748Z,95655.76
2023-05-05T20:40:18.569Z,95650.55
2023-05-05T20:42:45.307Z,95650.60
2023-05-05T20:45:11.948Z,95650.84
2023-05-05T20:47:38.658Z,95647.09
2023-05-05T20:50:05.955Z,95648.42
2023-05-05T20:52:35.648Z,95643.98
2023-05-05T20:55:02.303Z,95647.83
2023-05-05T20:57:29.012Z,95648.33
2023-05-05T20:59:55.934Z,95647.81
2023-05-05T21:02:22.601Z,95648.44
2023-05-05T21:04:49.852Z,95647.45
2023-05-05T21:07:16.416Z,95648.48
2023-05-05T21:09:45.520Z,95649.02
2023-05-05T21:12:12.271Z,95654.09
2023-05-05T21:14:42.661Z,95653.48
2023-05-05T21:17:09.692Z,95652.60
2023-05-05T21:19:36.225Z,95653.94
2023-05-05T21:22:03.862Z,95651.63
2023-05-05T21:24:30.603Z,95649.02
2023-05-05T21:26:57.181Z,95649.08
2023-05-05T21:29:26.737Z,95646.96
2023-05-05T21:31:53.645Z,95646.54
2023-05-05T21:34:20.334Z,95646.25
2023-05-05T21:36:47.123Z,95645.15
2023-05-05T21:39:13.686Z,95641.53
2023-05-05T21:41:40.543Z,95641.66
2023-05-05T21:44:07.219Z,95637.33
2023-05-05T21:46:33.896Z,95636.73
2023-05-05T21:49:10.645Z,95635.64
2023-05-05T21:51:37.363Z,95636.08
2023-05-05T21:54:03.979Z,95641.74
2023-05-05T21:56:32.301Z,95637.36
2023-05-05T21:58:59.388Z,95635.59
2023-05-05T22:01:25.992Z,95641.17
2023-05-05T22:03:53.336Z,95642.63
2023-05-05T22:06:20.584Z,95639.88
2023-05-05T22:08:47.692Z,95644.44
2023-05-05T22:11:14.478Z,95639.55
2023-05-05T22:13:41.361Z,95639.31
2023-05-05T22:16:08.288Z,95639.36
2023-05-05T22:18:35.519Z,95633.83
2023-05-05T22:21:02.702Z,95635.16
2023-05-05T22:23:29.300Z,95633.19
2023-05-05T22:25:56.693Z,95631.99
2023-05-05T22:28:23.307Z,95632.77
2023-05-05T22:30:50.181Z,95631.31
2023-05-05T22:33:16.864Z,95629.52
2023-05-05T22:35:43.398Z,95625.55
2023-05-05T22:38:10.027Z,95623.84
2023-05-05T22:40:36.769Z,95622.48
2023-05-05T22:43:03.496Z,95621.04
2023-05-05T22:45:30.220Z,95615.60
2023-05-05T22:47:56.998Z,95618.63
2023-05-05T22:50:23.718Z,95617.95
2023-05-05T22:52:50.427Z,95617.58
2023-05-05T22:55:17.117Z,95621.14
2023-05-05T22:57:43.747Z,95623.21
2023-05-05T23:00:10.534Z,95622.10
2023-05-05T23:02:37.302Z,95619.11
2023-05-05T23:05:04.672Z,95616.67
2023-05-05T23:07:31.705Z,95617.39
2023-05-05T23:09:58.415Z,95611.52
2023-05-05T23:12:25.410Z,95616.02
2023-05-05T23:14:52.106Z,95611.23
2023-05-05T23:17:18.987Z,95616.81
2023-05-05T23:19:47.173Z,95609.89
2023-05-05T23:22:13.828Z,95606.92
2023-05-05T23:24:40.536Z,95603.34
2023-05-05T23:27:07.107Z,95606.56
2023-05-05T23:29:33.824Z,95606.39
2023-05-05T23:32:00.407Z,95604.63
2023-05-05T23:34:26.998Z,95604.61
2023-05-05T23:36:53.544Z,95598.39
2023-05-05T23:39:20.260Z,95595.84
2023-05-05T23:41:46.905Z,95593.39
2023-05-05T23:44:13.552Z,95593.09
2023-05-05T23:46:40.389Z,95595.08
2023-05-05T23:49:07.544Z,95593.91
2023-05-05T23:51:34.232Z,95590.16
2023-05-05T23:54:01.135Z,95588.91
2023-05-05T23:56:27.903Z,95581.84
2023-05-05T23:58:54.479Z,95582.58
